sensor_id;sensor_type;location;lat;lon;timestamp;P1;durP1;ratioP1;P2;durP2;ratioP2
70270;SDS011;57680;54.292;18.598;2023-05-07T00:01:21;12.60;;;4.68;;
70270;SDS011;57680;54.292;18.598;2023-05-07T00:03:47;11.27;;;4.93;;
70270;SDS011;57680;54.292;18.598;2023-05-07T00:06:12;10.50;;;4.33;;
70270;SDS011;57680;54.292;18.598;2023-05-07T00:08:38;11.90;;;4.87;;
70270;SDS011;57680;54.292;18.598;2023-05-07T00:11:03;10.73;;;4.97;;
70270;SDS011;57680;54.292;18.598;2023-05-07T00:13:29;11.43;;;5.07;;
70270;SDS011;57680;54.292;18.598;2023-05-07T00:15:54;10.30;;;4.40;;
70270;SDS011;57680;54.292;18.598;2023-05-07T00:18:19;13.17;;;5.27;;
70270;SDS011;57680;54.292;18.598;2023-05-07T00:20:45;12.53;;;4.80;;
70270;SDS011;57680;54.292;18.598;2023-05-07T00:23:10;12.97;;;4.93;;
70270;SDS011;57680;54.292;18.598;2023-05-07T00:25:36;11.13;;;4.97;;
70270;SDS011;57680;54.292;18.598;2023-05-07T00:28:01;12.38;;;4.68;;
70270;SDS011;57680;54.292;18.598;2023-05-07T00:30:26;11.03;;;4.60;;
70270;SDS011;57680;54.292;18.598;2023-05-07T00:32:52;13.10;;;5.10;;
70270;SDS011;57680;54.292;18.598;2023-05-07T00:35:17;11.40;;;4.80;;
70270;SDS011;57680;54.292;18.598;2023-05-07T00:37:43;11.67;;;4.43;;
70270;SDS011;57680;54.292;18.598;2023-05-07T00:40:08;13.05;;;4.80;;
70270;SDS011;57680;54.292;18.598;2023-05-07T00:42:34;10.60;;;4.37;;
70270;SDS011;57680;54.292;18.598;2023-05-07T00:44:59;12.40;;;4.83;;
70270;SDS011;57680;54.292;18.598;2023-05-07T00:47:25;11.15;;;4.72;;
70270;SDS011;57680;54.292;18.598;2023-05-07T00:49:50;13.37;;;4.77;;
70270;SDS011;57680;54.292;18.598;2023-05-07T00:52:17;10.88;;;4.07;;
70270;SDS011;57680;54.292;18.598;2023-05-07T00:54:44;11.82;;;4.53;;
70270;SDS011;57680;54.292;18.598;2023-05-07T00:57:10;8.63;;;4.00;;
70270;SDS011;57680;54.292;18.598;2023-05-07T00:59:35;11.18;;;4.72;;
70270;SDS011;57680;54.292;18.598;2023-05-07T01:02:01;10.93;;;4.30;;
70270;SDS011;57680;54.292;18.598;2023-05-07T01:04:27;11.30;;;4.22;;
70270;SDS011;57680;54.292;18.598;2023-05-07T01:06:53;12.50;;;4.20;;
70270;SDS011;57680;54.292;18.598;2023-05-07T01:09:21;10.13;;;3.90;;
70270;SDS011;57680;54.292;18.598;2023-05-07T01:11:48;9.23;;;3.88;;
70270;SDS011;57680;54.292;18.598;2023-05-07T01:14:14;9.27;;;4.00;;
70270;SDS011;57680;54.292;18.598;2023-05-07T01:16:40;9.48;;;3.90;;
70270;SDS011;57680;54.292;18.598;2023-05-07T01:19:06;11.10;;;4.37;;
70270;SDS011;57680;54.292;18.598;2023-05-07T01:21:32;10.48;;;4.07;;
70270;SDS011;57680;54.292;18.598;2023-05-07T01:23:58;10.33;;;3.93;;
70270;SDS011;57680;54.292;18.598;2023-05-07T01:26:24;10.80;;;3.80;;
70270;SDS011;57680;54.292;18.598;2023-05-07T01:28:49;8.83;;;3.73;;
70270;SDS011;57680;54.292;18.598;2023-05-07T01:31:15;12.05;;;4.00;;
70270;SDS011;57680;54.292;18.598;2023-05-07T01:33:42;9.13;;;3.67;;
70270;SDS011;57680;54.292;18.598;2023-05-07T01:36:09;10.67;;;4.03;;
70270;SDS011;57680;54.292;18.598;2023-05-07T01:38:36;10.15;;;3.72;;
70270;SDS011;57680;54.292;18.598;2023-05-07T01:41:03;11.75;;;4.10;;
70270;SDS011;57680;54.292;18.598;2023-05-07T01:43:29;9.60;;;4.27;;
70270;SDS011;57680;54.292;18.598;2023-05-07T01:45:55;9.60;;;3.80;;
70270;SDS011;57680;54.292;18.598;2023-05-07T01:48:23;9.60;;;4.15;;
70270;SDS011;57680;54.292;18.598;2023-05-07T01:50:49;12.57;;;3.97;;
70270;SDS011;57680;54.292;18.598;2023-05-07T01:53:15;11.93;;;4.90;;
70270;SDS011;57680;54.292;18.598;2023-05-07T01:55:41;11.20;;;4.53;;
70270;SDS011;57680;54.292;18.598;2023-05-07T01:58:06;11.07;;;4.13;;
70270;SDS011;57680;54.292;18.598;2023-05-07T02:00:31;12.97;;;5.30;;
70270;SDS011;57680;54.292;18.598;2023-05-07T02:02:57;11.95;;;4.65;;
70270;SDS011;57680;54.292;18.598;2023-05-07T02:05:22;10.97;;;4.50;;
70270;SDS011;57680;54.292;18.598;2023-05-07T02:07:48;10.90;;;4.40;;
70270;SDS011;57680;54.292;18.598;2023-05-07T02:10:14;9.18;;;4.13;;
70270;SDS011;57680;54.292;18.598;2023-05-07T02:12:39;10.30;;;4.23;;
70270;SDS011;57680;54.292;18.598;2023-05-07T02:15:05;12.63;;;4.70;;
70270;SDS011;57680;54.292;18.598;2023-05-07T02:17:30;10.43;;;4.32;;
70270;SDS011;57680;54.292;18.598;2023-05-07T02:19:56;11.93;;;4.83;;
70270;SDS011;57680;54.292;18.598;2023-05-07T02:22:21;12.40;;;5.23;;
70270;SDS011;57680;54.292;18.598;2023-05-07T02:24:47;10.38;;;4.03;;
70270;SDS011;57680;54.292;18.598;2023-05-07T02:27:12;11.50;;;5.33;;
70270;SDS011;57680;54.292;18.598;2023-05-07T02:29:38;13.60;;;5.30;;
70270;SDS011;57680;54.292;18.598;2023-05-07T02:32:03;11.73;;;4.93;;
70270;SDS011;57680;54.292;18.598;2023-05-07T02:34:28;11.50;;;4.60;;
70270;SDS011;57680;54.292;18.598;2023-05-07T02:36:54;12.55;;;4.88;;
70270;SDS011;57680;54.292;18.598;2023-05-07T02:39:19;12.73;;;5.30;;
70270;SDS011;57680;54.292;18.598;2023-05-07T02:41:45;15.80;;;6.03;;
70270;SDS011;57680;54.292;18.598;2023-05-07T02:44:10;12.73;;;5.23;;
70270;SDS011;57680;54.292;18.598;2023-05-07T02:46:36;12.27;;;4.80;;
70270;SDS011;57680;54.292;18.598;2023-05-07T02:49:01;11.35;;;4.45;;
70270;SDS011;57680;54.292;18.598;2023-05-07T02:51:27;12.07;;;5.10;;
70270;SDS011;57680;54.292;18.598;2023-05-07T02:53:52;12.43;;;5.30;;
70270;SDS011;57680;54.292;18.598;2023-05-07T02:56:17;11.37;;;5.00;;
70270;SDS011;57680;54.292;18.598;2023-05-07T02:58:43;11.18;;;4.97;;
70270;SDS011;57680;54.292;18.598;2023-05-07T03:01:08;10.50;;;4.40;;
70270;SDS011;57680;54.292;18.598;2023-05-07T03:03:35;11.43;;;4.72;;
70270;SDS011;57680;54.292;18.598;2023-05-07T03:06:00;13.13;;;4.93;;
70270;SDS011;57680;54.292;18.598;2023-05-07T03:08:26;12.73;;;4.80;;
70270;SDS011;57680;54.292;18.598;2023-05-07T03:10:51;19.27;;;4.80;;
70270;SDS011;57680;54.292;18.598;2023-05-07T03:13:17;12.30;;;4.93;;
70270;SDS011;57680;54.292;18.598;2023-05-07T03:15:43;12.30;;;5.22;;
70270;SDS011;57680;54.292;18.598;2023-05-07T03:18:09;13.53;;;5.50;;
70270;SDS011;57680;54.292;18.598;2023-05-07T03:20:34;12.27;;;5.05;;
70270;SDS011;57680;54.292;18.598;2023-05-07T03:22:59;12.77;;;5.03;;
70270;SDS011;57680;54.292;18.598;2023-05-07T03:25:25;12.80;;;4.83;;
70270;SDS011;57680;54.292;18.598;2023-05-07T03:27:50;10.90;;;5.03;;
70270;SDS011;57680;54.292;18.598;2023-05-07T03:30:16;12.60;;;4.85;;
70270;SDS011;57680;54.292;18.598;2023-05-07T03:32:41;15.03;;;5.03;;
70270;SDS011;57680;54.292;18.598;2023-05-07T03:35:07;12.20;;;5.20;;
70270;SDS011;57680;54.292;18.598;2023-05-07T03:37:32;12.37;;;5.03;;
70270;SDS011;57680;54.292;18.598;2023-05-07T03:39:58;13.15;;;5.15;;
70270;SDS011;57680;54.292;18.598;2023-05-07T03:42:23;9.80;;;4.57;;
70270;SDS011;57680;54.292;18.598;2023-05-07T03:44:49;10.27;;;4.85;;
70270;SDS011;57680;54.292;18.598;2023-05-07T03:47:14;13.97;;;4.80;;
70270;SDS011;57680;54.292;18.598;2023-05-07T03:49:40;13.13;;;5.30;;
70270;SDS011;57680;54.292;18.598;2023-05-07T03:52:06;17.70;;;7.00;;
70270;SDS011;57680;54.292;18.598;2023-05-07T03:54:31;17.45;;;7.18;;
70270;SDS011;57680;54.292;18.598;2023-05-07T03:56:57;14.00;;;6.43;;
70270;SDS011;57680;54.292;18.598;2023-05-07T03:59:22;12.80;;;5.70;;
70270;SDS011;57680;54.292;18.598;2023-05-07T04:01:47;12.98;;;5.38;;
70270;SDS011;57680;54.292;18.598;2023-05-07T04:04:13;10.10;;;5.43;;
70270;SDS011;57680;54.292;18.598;2023-05-07T04:06:38;13.10;;;5.70;;
70270;SDS011;57680;54.292;18.598;2023-05-07T04:09:03;13.20;;;5.53;;
70270;SDS011;57680;54.292;18.598;2023-05-07T04:11:29;11.07;;;4.97;;
70270;SDS011;57680;54.292;18.598;2023-05-07T04:13:54;12.73;;;5.70;;
70270;SDS011;57680;54.292;18.598;2023-05-07T04:16:20;12.90;;;5.55;;
70270;SDS011;57680;54.292;18.598;2023-05-07T04:18:45;11.00;;;5.10;;
70270;SDS011;57680;54.292;18.598;2023-05-07T04:21:17;11.43;;;5.10;;
70270;SDS011;57680;54.292;18.598;2023-05-07T04:23:44;10.30;;;4.72;;
70270;SDS011;57680;54.292;18.598;2023-05-07T04:26:10;11.73;;;5.20;;
70270;SDS011;57680;54.292;18.598;2023-05-07T04:28:36;11.73;;;5.00;;
70270;SDS011;57680;54.292;18.598;2023-05-07T04:31:01;11.07;;;4.97;;
70270;SDS011;57680;54.292;18.598;2023-05-07T04:33:27;13.43;;;6.47;;
70270;SDS011;57680;54.292;18.598;2023-05-07T04:35:52;13.90;;;6.30;;
70270;SDS011;57680;54.292;18.598;2023-05-07T04:38:18;12.77;;;5.80;;
70270;SDS011;57680;54.292;18.598;2023-05-07T04:40:44;12.57;;;5.85;;
70270;SDS011;57680;54.292;18.598;2023-05-07T04:43:09;13.53;;;6.20;;
70270;SDS011;57680;54.292;18.598;2023-05-07T04:45:35;11.52;;;5.60;;
70270;SDS011;57680;54.292;18.598;2023-05-07T04:48:01;12.13;;;4.60;;
70270;SDS011;57680;54.292;18.598;2023-05-07T04:50:27;11.73;;;4.80;;
70270;SDS011;57680;54.292;18.598;2023-05-07T04:52:52;10.67;;;4.57;;
70270;SDS011;57680;54.292;18.598;2023-05-07T04:55:18;9.53;;;4.47;;
70270;SDS011;57680;54.292;18.598;2023-05-07T04:57:43;8.50;;;4.20;;
70270;SDS011;57680;54.292;18.598;2023-05-07T05:00:09;9.45;;;3.85;;
70270;SDS011;57680;54.292;18.598;2023-05-07T05:02:35;13.37;;;3.70;;
70270;SDS011;57680;54.292;18.598;2023-05-07T05:05:00;7.80;;;3.50;;
70270;SDS011;57680;54.292;18.598;2023-05-07T05:07:26;9.20;;;3.40;;
70270;SDS011;57680;54.292;18.598;2023-05-07T05:09:52;7.60;;;3.20;;
70270;SDS011;57680;54.292;18.598;2023-05-07T05:12:17;7.13;;;3.47;;
70270;SDS011;57680;54.292;18.598;2023-05-07T05:14:42;7.77;;;3.40;;
70270;SDS011;57680;54.292;18.598;2023-05-07T05:17:08;7.80;;;3.40;;
70270;SDS011;57680;54.292;18.598;2023-05-07T05:19:33;10.30;;;3.60;;
70270;SDS011;57680;54.292;18.598;2023-05-07T05:21:59;7.87;;;3.37;;
70270;SDS011;57680;54.292;18.598;2023-05-07T05:24:24;9.83;;;3.60;;
70270;SDS011;57680;54.292;18.598;2023-05-07T05:26:50;10.23;;;3.80;;
70270;SDS011;57680;54.292;18.598;2023-05-07T05:29:18;8.25;;;3.30;;
70270;SDS011;57680;54.292;18.598;2023-05-07T05:31:43;7.95;;;3.30;;
70270;SDS011;57680;54.292;18.598;2023-05-07T05:34:09;7.27;;;3.10;;
70270;SDS011;57680;54.292;18.598;2023-05-07T05:36:34;7.93;;;3.10;;
70270;SDS011;57680;54.292;18.598;2023-05-07T05:38:59;7.40;;;3.03;;
70270;SDS011;57680;54.292;18.598;2023-05-07T05:41:25;6.80;;;3.35;;
70270;SDS011;57680;54.292;18.598;2023-05-07T05:43:50;8.87;;;3.20;;
70270;SDS011;57680;54.292;18.598;2023-05-07T05:46:16;9.33;;;3.20;;
70270;SDS011;57680;54.292;18.598;2023-05-07T05:48:41;7.67;;;3.27;;
70270;SDS011;57680;54.292;18.598;2023-05-07T05:51:07;6.03;;;3.10;;
70270;SDS011;57680;54.292;18.598;2023-05-07T05:53:32;9.20;;;3.60;;
70270;SDS011;57680;54.292;18.598;2023-05-07T05:55:57;8.23;;;3.43;;
70270;SDS011;57680;54.292;18.598;2023-05-07T05:58:24;8.32;;;3.45;;
70270;SDS011;57680;54.292;18.598;2023-05-07T06:00:49;7.33;;;3.50;;
70270;SDS011;57680;54.292;18.598;2023-05-07T06:03:14;7.40;;;3.47;;
70270;SDS011;57680;54.292;18.598;2023-05-07T06:05:40;7.20;;;3.40;;
70270;SDS011;57680;54.292;18.598;2023-05-07T06:08:05;7.67;;;3.93;;
70270;SDS011;57680;54.292;18.598;2023-05-07T06:10:31;7.23;;;3.30;;
70270;SDS011;57680;54.292;18.598;2023-05-07T06:12:57;8.55;;;3.42;;
70270;SDS011;57680;54.292;18.598;2023-05-07T06:15:22;11.53;;;3.70;;
70270;SDS011;57680;54.292;18.598;2023-05-07T06:17:47;7.88;;;3.15;;
70270;SDS011;57680;54.292;18.598;2023-05-07T06:20:13;7.77;;;3.13;;
70270;SDS011;57680;54.292;18.598;2023-05-07T06:22:38;8.03;;;3.50;;
70270;SDS011;57680;54.292;18.598;2023-05-07T06:25:04;7.50;;;3.20;;
70270;SDS011;57680;54.292;18.598;2023-05-07T06:27:30;7.35;;;3.40;;
70270;SDS011;57680;54.292;18.598;2023-05-07T06:29:55;7.37;;;3.13;;
70270;SDS011;57680;54.292;18.598;2023-05-07T06:32:21;7.70;;;3.00;;
70270;SDS011;57680;54.292;18.598;2023-05-07T06:34:46;8.95;;;3.30;;
70270;SDS011;57680;54.292;18.598;2023-05-07T06:37:11;6.70;;;2.77;;
70270;SDS011;57680;54.292;18.598;2023-05-07T06:39:37;6.93;;;2.80;;
70270;SDS011;57680;54.292;18.598;2023-05-07T06:42:02;7.07;;;2.80;;
70270;SDS011;57680;54.292;18.598;2023-05-07T06:44:28;8.50;;;3.22;;
70270;SDS011;57680;54.292;18.598;2023-05-07T06:46:53;8.07;;;3.20;;
70270;SDS011;57680;54.292;18.598;2023-05-07T06:49:19;7.40;;;2.83;;
70270;SDS011;57680;54.292;18.598;2023-05-07T06:51:44;8.85;;;3.08;;
70270;SDS011;57680;54.292;18.598;2023-05-07T06:54:10;7.53;;;2.90;;
70270;SDS011;57680;54.292;18.598;2023-05-07T06:56:35;7.77;;;2.70;;
70270;SDS011;57680;54.292;18.598;2023-05-07T06:59:01;7.43;;;2.80;;
70270;SDS011;57680;54.292;18.598;2023-05-07T07:01:28;8.13;;;2.83;;
70270;SDS011;57680;54.292;18.598;2023-05-07T07:03:54;5.78;;;2.67;;
70270;SDS011;57680;54.292;18.598;2023-05-07T07:06:20;7.47;;;3.10;;
70270;SDS011;57680;54.292;18.598;2023-05-07T07:08:45;6.47;;;2.80;;
70270;SDS011;57680;54.292;18.598;2023-05-07T07:11:11;6.43;;;3.07;;
70270;SDS011;57680;54.292;18.598;2023-05-07T07:13:37;6.22;;;2.75;;
70270;SDS011;57680;54.292;18.598;2023-05-07T07:16:02;6.73;;;2.30;;
70270;SDS011;57680;54.292;18.598;2023-05-07T07:18:28;7.13;;;2.30;;
70270;SDS011;57680;54.292;18.598;2023-05-07T07:20:53;5.83;;;2.50;;
70270;SDS011;57680;54.292;18.598;2023-05-07T07:23:19;5.40;;;2.00;;
70270;SDS011;57680;54.292;18.598;2023-05-07T07:25:44;6.57;;;2.47;;
70270;SDS011;57680;54.292;18.598;2023-05-07T07:28:10;5.47;;;2.43;;
70270;SDS011;57680;54.292;18.598;2023-05-07T07:30:35;8.03;;;2.50;;
70270;SDS011;57680;54.292;18.598;2023-05-07T07:33:01;6.80;;;2.50;;
70270;SDS011;57680;54.292;18.598;2023-05-07T07:35:27;5.70;;;2.50;;
70270;SDS011;57680;54.292;18.598;2023-05-07T07:37:52;7.63;;;2.20;;
70270;SDS011;57680;54.292;18.598;2023-05-07T07:40:18;7.07;;;2.53;;
70270;SDS011;57680;54.292;18.598;2023-05-07T07:42:43;6.20;;;2.60;;
70270;SDS011;57680;54.292;18.598;2023-05-07T07:45:09;6.43;;;2.17;;
70270;SDS011;57680;54.292;18.598;2023-05-07T07:47:35;5.78;;;2.25;;
70270;SDS011;57680;54.292;18.598;2023-05-07T07:50:00;6.43;;;2.40;;
70270;SDS011;57680;54.292;18.598;2023-05-07T07:52:25;6.60;;;2.40;;
70270;SDS011;57680;54.292;18.598;2023-05-07T07:54:51;6.20;;;2.67;;
70270;SDS011;57680;54.292;18.598;2023-05-07T07:57:16;5.37;;;2.20;;
70270;SDS011;57680;54.292;18.598;2023-05-07T07:59:42;6.07;;;2.20;;
70270;SDS011;57680;54.292;18.598;2023-05-07T08:02:07;5.60;;;2.10;;
70270;SDS011;57680;54.292;18.598;2023-05-07T08:04:33;4.65;;;1.80;;
70270;SDS011;57680;54.292;18.598;2023-05-07T08:06:58;7.20;;;2.00;;
70270;SDS011;57680;54.292;18.598;2023-05-07T08:09:23;5.73;;;2.17;;
70270;SDS011;57680;54.292;18.598;2023-05-07T08:11:49;4.87;;;2.10;;
70270;SDS011;57680;54.292;18.598;2023-05-07T08:14:14;6.05;;;2.40;;
70270;SDS011;57680;54.292;18.598;2023-05-07T08:16:40;6.93;;;2.00;;
70270;SDS011;57680;54.292;18.598;2023-05-07T08:19:05;6.20;;;2.00;;
70270;SDS011;57680;54.292;18.598;2023-05-07T08:21:30;5.70;;;1.80;;
70270;SDS011;57680;54.292;18.598;2023-05-07T08:23:56;5.32;;;1.85;;
70270;SDS011;57680;54.292;18.598;2023-05-07T08:26:22;6.30;;;1.70;;
70270;SDS011;57680;54.292;18.598;2023-05-07T08:28:47;6.10;;;2.63;;
70270;SDS011;57680;54.292;18.598;2023-05-07T08:31:13;4.68;;;1.63;;
70270;SDS011;57680;54.292;18.598;2023-05-07T08:33:39;4.70;;;1.70;;
70270;SDS011;57680;54.292;18.598;2023-05-07T08:36:04;4.88;;;1.65;;
70270;SDS011;57680;54.292;18.598;2023-05-07T08:38:30;4.40;;;1.77;;
70270;SDS011;57680;54.292;18.598;2023-05-07T08:40:56;4.53;;;1.50;;
70270;SDS011;57680;54.292;18.598;2023-05-07T08:43:21;5.03;;;1.60;;
70270;SDS011;57680;54.292;18.598;2023-05-07T08:45:53;3.70;;;1.30;;
70270;SDS011;57680;54.292;18.598;2023-05-07T08:48:19;4.90;;;1.48;;
70270;SDS011;57680;54.292;18.598;2023-05-07T08:50:49;4.17;;;1.27;;
70270;SDS011;57680;54.292;18.598;2023-05-07T08:53:15;5.15;;;1.35;;
70270;SDS011;57680;54.292;18.598;2023-05-07T08:55:41;4.05;;;1.60;;
70270;SDS011;57680;54.292;18.598;2023-05-07T08:58:07;4.80;;;1.60;;
70270;SDS011;57680;54.292;18.598;2023-05-07T09:00:32;4.77;;;2.10;;
70270;SDS011;57680;54.292;18.598;2023-05-07T09:02:57;5.07;;;1.60;;
70270;SDS011;57680;54.292;18.598;2023-05-07T09:05:23;4.15;;;1.70;;
70270;SDS011;57680;54.292;18.598;2023-05-07T09:07:48;3.77;;;1.40;;
70270;SDS011;57680;54.292;18.598;2023-05-07T09:10:14;7.70;;;2.10;;
70270;SDS011;57680;54.292;18.598;2023-05-07T09:12:39;5.77;;;1.60;;
70270;SDS011;57680;54.292;18.598;2023-05-07T09:15:05;4.85;;;1.88;;
70270;SDS011;57680;54.292;18.598;2023-05-07T09:17:31;7.25;;;2.20;;
70270;SDS011;57680;54.292;18.598;2023-05-07T09:20:01;7.20;;;2.20;;
70270;SDS011;57680;54.292;18.598;2023-05-07T09:22:27;6.68;;;2.40;;
70270;SDS011;57680;54.292;18.598;2023-05-07T09:24:56;6.35;;;2.60;;
70270;SDS011;57680;54.292;18.598;2023-05-07T09:27:21;4.77;;;2.10;;
70270;SDS011;57680;54.292;18.598;2023-05-07T09:29:47;6.17;;;2.20;;
70270;SDS011;57680;54.292;18.598;2023-05-07T09:32:12;6.13;;;2.50;;
70270;SDS011;57680;54.292;18.598;2023-05-07T09:34:39;6.50;;;2.33;;
70270;SDS011;57680;54.292;18.598;2023-05-07T09:37:06;5.07;;;2.40;;
70270;SDS011;57680;54.292;18.598;2023-05-07T09:39:44;6.03;;;2.27;;
70270;SDS011;57680;54.292;18.598;2023-05-07T09:42:11;5.15;;;2.30;;
70270;SDS011;57680;54.292;18.598;2023-05-07T09:44:37;4.83;;;1.77;;
70270;SDS011;57680;54.292;18.598;2023-05-07T09:47:06;5.35;;;2.00;;
70270;SDS011;57680;54.292;18.598;2023-05-07T09:49:35;6.47;;;2.40;;
70270;SDS011;57680;54.292;18.598;2023-05-07T09:52:02;6.15;;;2.20;;
70270;SDS011;57680;54.292;18.598;2023-05-07T09:54:29;5.82;;;1.85;;
70270;SDS011;57680;54.292;18.598;2023-05-07T09:56:55;6.67;;;1.87;;
70270;SDS011;57680;54.292;18.598;2023-05-07T09:59:22;6.15;;;2.30;;
70270;SDS011;57680;54.292;18.598;2023-05-07T10:01:47;5.95;;;2.10;;
70270;SDS011;57680;54.292;18.598;2023-05-07T10:04:14;5.75;;;2.03;;
70270;SDS011;57680;54.292;18.598;2023-05-07T10:06:39;6.63;;;1.77;;
70270;SDS011;57680;54.292;18.598;2023-05-07T10:09:06;6.00;;;1.70;;
70270;SDS011;57680;54.292;18.598;2023-05-07T10:11:32;4.97;;;1.67;;
70270;SDS011;57680;54.292;18.598;2023-05-07T10:14:04;5.07;;;1.60;;
70270;SDS011;57680;54.292;18.598;2023-05-07T10:16:33;6.90;;;2.00;;
70270;SDS011;57680;54.292;18.598;2023-05-07T10:18:59;4.97;;;1.80;;
70270;SDS011;57680;54.292;18.598;2023-05-07T10:21:30;5.70;;;1.80;;
70270;SDS011;57680;54.292;18.598;2023-05-07T10:23:58;5.82;;;1.77;;
70270;SDS011;57680;54.292;18.598;2023-05-07T10:26:32;5.88;;;2.03;;
70270;SDS011;57680;54.292;18.598;2023-05-07T10:29:04;7.57;;;2.20;;
70270;SDS011;57680;54.292;18.598;2023-05-07T10:31:39;4.35;;;1.70;;
70270;SDS011;57680;54.292;18.598;2023-05-07T10:34:09;5.93;;;2.10;;
70270;SDS011;57680;54.292;18.598;2023-05-07T10:36:37;4.13;;;1.70;;
70270;SDS011;57680;54.292;18.598;2023-05-07T10:39:03;4.97;;;1.80;;
70270;SDS011;57680;54.292;18.598;2023-05-07T10:41:31;4.03;;;1.70;;
70270;SDS011;57680;54.292;18.598;2023-05-07T10:43:57;4.37;;;1.53;;
70270;SDS011;57680;54.292;18.598;2023-05-07T10:46:23;6.97;;;1.50;;
70270;SDS011;57680;54.292;18.598;2023-05-07T10:51:26;5.47;;;1.70;;
70270;SDS011;57680;54.292;18.598;2023-05-07T10:56:39;5.30;;;1.55;;
70270;SDS011;57680;54.292;18.598;2023-05-07T11:04:19;5.93;;;1.58;;
70270;SDS011;57680;54.292;18.598;2023-05-07T11:12:16;4.60;;;1.30;;
70270;SDS011;57680;54.292;18.598;2023-05-07T11:14:44;4.25;;;1.40;;
70270;SDS011;57680;54.292;18.598;2023-05-07T11:17:10;3.50;;;1.38;;
70270;SDS011;57680;54.292;18.598;2023-05-07T11:19:52;3.67;;;1.40;;
70270;SDS011;57680;54.292;18.598;2023-05-07T11:24:56;5.30;;;1.73;;
70270;SDS011;57680;54.292;18.598;2023-05-07T11:27:24;4.32;;;1.70;;
70270;SDS011;57680;54.292;18.598;2023-05-07T11:29:51;5.10;;;2.00;;
70270;SDS011;57680;54.292;18.598;2023-05-07T11:32:26;6.53;;;1.67;;
70270;SDS011;57680;54.292;18.598;2023-05-07T11:34:56;3.90;;;1.50;;
70270;SDS011;57680;54.292;18.598;2023-05-07T11:37:24;7.65;;;1.75;;
70270;SDS011;57680;54.292;18.598;2023-05-07T11:39:51;4.55;;;1.60;;
70270;SDS011;57680;54.292;18.598;2023-05-07T11:44:58;5.03;;;1.95;;
70270;SDS011;57680;54.292;18.598;2023-05-07T11:47:23;5.20;;;1.52;;
70270;SDS011;57680;54.292;18.598;2023-05-07T11:49:50;4.60;;;1.80;;
70270;SDS011;57680;54.292;18.598;2023-05-07T11:52:17;5.90;;;1.83;;
70270;SDS011;57680;54.292;18.598;2023-05-07T11:54:51;7.45;;;1.92;;
70270;SDS011;57680;54.292;18.598;2023-05-07T11:57:17;5.65;;;1.88;;
70270;SDS011;57680;54.292;18.598;2023-05-07T11:59:43;4.93;;;1.93;;
70270;SDS011;57680;54.292;18.598;2023-05-07T12:02:09;5.03;;;1.90;;
70270;SDS011;57680;54.292;18.598;2023-05-07T12:04:34;5.33;;;1.80;;
70270;SDS011;57680;54.292;18.598;2023-05-07T12:06:59;5.30;;;1.80;;
70270;SDS011;57680;54.292;18.598;2023-05-07T12:09:25;6.57;;;1.90;;
70270;SDS011;57680;54.292;18.598;2023-05-07T12:11:51;5.30;;;1.90;;
70270;SDS011;57680;54.292;18.598;2023-05-07T12:14:17;7.32;;;1.83;;
70270;SDS011;57680;54.292;18.598;2023-05-07T12:16:42;5.37;;;1.97;;
70270;SDS011;57680;54.292;18.598;2023-05-07T12:19:09;5.50;;;1.75;;
70270;SDS011;57680;54.292;18.598;2023-05-07T12:21:34;6.77;;;2.23;;
70270;SDS011;57680;54.292;18.598;2023-05-07T12:24:01;8.07;;;2.00;;
70270;SDS011;57680;54.292;18.598;2023-05-07T12:26:26;4.20;;;1.58;;
70270;SDS011;57680;54.292;18.598;2023-05-07T12:28:52;5.83;;;2.00;;
70270;SDS011;57680;54.292;18.598;2023-05-07T12:31:17;6.07;;;1.70;;
70270;SDS011;57680;54.292;18.598;2023-05-07T12:33:43;5.30;;;1.80;;
70270;SDS011;57680;54.292;18.598;2023-05-07T12:36:11;8.70;;;2.00;;
70270;SDS011;57680;54.292;18.598;2023-05-07T12:38:38;4.93;;;2.10;;
70270;SDS011;57680;54.292;18.598;2023-05-07T12:41:04;4.95;;;1.95;;
70270;SDS011;57680;54.292;18.598;2023-05-07T12:43:31;7.32;;;2.00;;
70270;SDS011;57680;54.292;18.598;2023-05-07T12:45:57;4.87;;;2.10;;
70270;SDS011;57680;54.292;18.598;2023-05-07T12:48:25;5.70;;;1.90;;
70270;SDS011;57680;54.292;18.598;2023-05-07T12:50:51;6.17;;;2.23;;
70270;SDS011;57680;54.292;18.598;2023-05-07T12:53:19;6.05;;;2.40;;
70270;SDS011;57680;54.292;18.598;2023-05-07T12:55:50;5.00;;;2.00;;
70270;SDS011;57680;54.292;18.598;2023-05-07T12:58:24;4.53;;;1.70;;
70270;SDS011;57680;54.292;18.598;2023-05-07T13:00:52;6.60;;;1.95;;
70270;SDS011;57680;54.292;18.598;2023-05-07T13:03:25;6.78;;;1.75;;
70270;SDS011;57680;54.292;18.598;2023-05-07T13:05:55;5.88;;;1.90;;
70270;SDS011;57680;54.292;18.598;2023-05-07T13:08:26;5.27;;;2.10;;
70270;SDS011;57680;54.292;18.598;2023-05-07T13:11:02;6.03;;;2.00;;
70270;SDS011;57680;54.292;18.598;2023-05-07T13:13:28;7.55;;;2.30;;
70270;SDS011;57680;54.292;18.598;2023-05-07T13:15:54;6.67;;;1.80;;
70270;SDS011;57680;54.292;18.598;2023-05-07T13:18:19;9.70;;;2.63;;
70270;SDS011;57680;54.292;18.598;2023-05-07T13:20:45;5.60;;;2.40;;
70270;SDS011;57680;54.292;18.598;2023-05-07T13:23:10;5.03;;;1.98;;
70270;SDS011;57680;54.292;18.598;2023-05-07T13:25:36;6.93;;;2.40;;
70270;SDS011;57680;54.292;18.598;2023-05-07T13:28:02;5.23;;;2.40;;
70270;SDS011;57680;54.292;18.598;2023-05-07T13:30:27;5.53;;;1.80;;
70270;SDS011;57680;54.292;18.598;2023-05-07T13:32:54;6.77;;;2.07;;
70270;SDS011;57680;54.292;18.598;2023-05-07T13:35:21;6.45;;;2.15;;
70270;SDS011;57680;54.292;18.598;2023-05-07T13:37:46;6.97;;;2.10;;
70270;SDS011;57680;54.292;18.598;2023-05-07T13:40:12;6.37;;;2.30;;
70270;SDS011;57680;54.292;18.598;2023-05-07T13:42:37;6.57;;;2.13;;
70270;SDS011;57680;54.292;18.598;2023-05-07T13:45:03;6.07;;;2.40;;
70270;SDS011;57680;54.292;18.598;2023-05-07T13:47:28;5.85;;;2.10;;
70270;SDS011;57680;54.292;18.598;2023-05-07T13:49:54;5.87;;;1.93;;
70270;SDS011;57680;54.292;18.598;2023-05-07T13:52:19;5.90;;;2.13;;
70270;SDS011;57680;54.292;18.598;2023-05-07T13:54:45;6.77;;;2.47;;
70270;SDS011;57680;54.292;18.598;2023-05-07T13:57:10;9.27;;;2.33;;
70270;SDS011;57680;54.292;18.598;2023-05-07T13:59:35;6.67;;;2.60;;
70270;SDS011;57680;54.292;18.598;2023-05-07T14:02:01;8.60;;;2.50;;
70270;SDS011;57680;54.292;18.598;2023-05-07T14:04:26;6.97;;;2.50;;
70270;SDS011;57680;54.292;18.598;2023-05-07T14:06:52;6.13;;;2.30;;
70270;SDS011;57680;54.292;18.598;2023-05-07T14:09:17;6.47;;;2.47;;
70270;SDS011;57680;54.292;18.598;2023-05-07T14:11:42;7.47;;;2.30;;
70270;SDS011;57680;54.292;18.598;2023-05-07T14:14:08;5.27;;;2.20;;
70270;SDS011;57680;54.292;18.598;2023-05-07T14:16:33;8.30;;;2.57;;
70270;SDS011;57680;54.292;18.598;2023-05-07T14:18:58;8.27;;;2.70;;
70270;SDS011;57680;54.292;18.598;2023-05-07T14:21:24;9.93;;;2.95;;
70270;SDS011;57680;54.292;18.598;2023-05-07T14:23:49;7.93;;;2.57;;
70270;SDS011;57680;54.292;18.598;2023-05-07T14:26:15;5.53;;;2.50;;
70270;SDS011;57680;54.292;18.598;2023-05-07T14:28:40;8.27;;;2.20;;
70270;SDS011;57680;54.292;18.598;2023-05-07T14:31:06;8.32;;;2.00;;
70270;SDS011;57680;54.292;18.598;2023-05-07T14:33:31;10.20;;;2.93;;
70270;SDS011;57680;54.292;18.598;2023-05-07T14:35:57;7.17;;;2.40;;
70270;SDS011;57680;54.292;18.598;2023-05-07T14:38:22;8.20;;;2.88;;
70270;SDS011;57680;54.292;18.598;2023-05-07T14:40:48;9.23;;;2.67;;
70270;SDS011;57680;54.292;18.598;2023-05-07T14:43:13;8.83;;;2.60;;
70270;SDS011;57680;54.292;18.598;2023-05-07T14:45:38;9.50;;;2.70;;